Time;durP1;ratioP1;P1;durP2;ratioP2;P2;SDS_P1;SDS_P2;PMS_P1;PMS_P2;Temp;Humidity;BMP_temperature;BMP_pressure;BME280_temperature;BME280_humidity;BME280_pressure;Samples;Min_cycle;Max_cycle;Signal;HPM_P1;HPM_P2
2022/08/21 00:00:15;;;;;;;9.98;3.22;;;;;;;;;;5056995;28;20239;-55
2022/08/21 00:03:05;;;;;;;5.25;3.13;;;;;;;;;;5056725;28;20682;-57
2022/08/21 00:05:35;;;;;;;8.93;3.13;;;;;;;;;;5057182;28;20204;-56
2022/08/21 00:08:03;;;;;;;5.07;2.95;;;;;;;;;;5057033;28;20279;-56
2022/08/21 00:10:30;;;;;;;6.45;3.30;;;;;;;;;;5057101;28;20212;-57
2022/08/21 00:12:59;;;;;;;6.18;2.92;;;;;;;;;;5056702;28;20291;-55
2022/08/21 00:15:29;;;;;;;6.60;2.95;;;;;;;;;;5057058;28;20207;-56
2022/08/21 00:17:56;;;;;;;4.47;2.53;;;;;;;;;;5056446;28;20203;-58
2022/08/21 00:20:23;;;;;;;4.10;2.95;;;;;;;;;;5056690;28;20220;-55
2022/08/21 00:22:51;;;;;;;6.00;3.17;;;;;;;;;;5052996;28;20302;-55
2022/08/21 00:25:20;;;;;;;6.97;3.00;;;;;;;;;;5056364;28;20651;-57
2022/08/21 00:27:52;;;;;;;4.43;3.20;;;;;;;;;;5055689;28;20215;-55
2022/08/21 00:30:21;;;;;;;5.50;2.65;;;;;;;;;;5055962;28;20203;-56
2022/08/21 00:32:50;;;;;;;7.13;3.38;;;;;;;;;;5055922;28;20210;-56
2022/08/21 00:35:23;;;;;;;7.80;2.83;;;;;;;;;;5055678;28;20204;-56
2022/08/21 00:37:50;;;;;;;4.15;2.90;;;;;;;;;;5056224;28;20307;-56
2022/08/21 00:40:20;;;;;;;5.47;3.20;;;;;;;;;;5056029;28;20652;-56
2022/08/21 00:42:49;;;;;;;4.47;2.90;;;;;;;;;;5055855;28;20196;-57
2022/08/21 00:45:23;;;;;;;6.60;3.40;;;;;;;;;;5056338;28;20263;-57
2022/08/21 00:47:51;;;;;;;7.68;3.53;;;;;;;;;;5055896;28;20557;-57
2022/08/21 00:50:19;;;;;;;6.85;3.35;;;;;;;;;;5053707;28;20297;-56
2022/08/21 00:52:50;;;;;;;3.95;2.88;;;;;;;;;;5055992;28;20215;-55
2022/08/21 00:55:18;;;;;;;4.93;3.20;;;;;;;;;;5071316;28;20552;-56
2022/08/21 00:57:49;;;;;;;7.50;3.53;;;;;;;;;;5055687;28;20199;-55
2022/08/21 01:00:22;;;;;;;6.38;3.47;;;;;;;;;;5054924;28;20683;-57
2022/08/21 01:02:50;;;;;;;6.72;3.38;;;;;;;;;;5055820;28;20632;-57
2022/08/21 01:05:17;;;;;;;8.13;3.15;;;;;;;;;;5055795;28;20200;-56
2022/08/21 01:07:44;;;;;;;5.13;3.28;;;;;;;;;;5055825;28;20520;-56
2022/08/21 01:10:12;;;;;;;6.00;3.03;;;;;;;;;;5056214;28;20204;-56
2022/08/21 01:12:52;;;;;;;4.22;3.40;;;;;;;;;;5055912;28;20200;-57
2022/08/21 01:15:20;;;;;;;4.63;3.47;;;;;;;;;;5055145;28;20199;-56
2022/08/21 01:17:48;;;;;;;6.32;3.75;;;;;;;;;;5070682;28;20199;-57
2022/08/21 01:20:16;;;;;;;5.10;3.63;;;;;;;;;;5055132;28;20699;-57
2022/08/21 01:22:43;;;;;;;6.35;3.30;;;;;;;;;;5055555;28;20222;-56
2022/08/21 01:25:12;;;;;;;4.72;3.40;;;;;;;;;;5055518;28;20290;-56
2022/08/21 01:27:39;;;;;;;7.88;3.60;;;;;;;;;;5055435;28;20196;-57
2022/08/21 01:30:14;;;;;;;7.95;3.58;;;;;;;;;;5055302;28;20214;-56
2022/08/21 01:32:41;;;;;;;7.00;3.25;;;;;;;;;;5055464;28;20195;-57
2022/08/21 01:35:09;;;;;;;7.75;3.80;;;;;;;;;;5055278;28;20207;-56
2022/08/21 01:37:36;;;;;;;7.18;3.78;;;;;;;;;;5054972;28;20666;-56
2022/08/21 01:40:05;;;;;;;5.53;3.72;;;;;;;;;;5055065;28;20258;-56
2022/08/21 01:42:33;;;;;;;6.72;3.63;;;;;;;;;;5055170;28;20204;-56
2022/08/21 01:45:00;;;;;;;3.97;3.35;;;;;;;;;;5055111;28;20218;-56
2022/08/21 01:47:27;;;;;;;4.85;3.33;;;;;;;;;;5055748;28;20195;-56
2022/08/21 01:49:54;;;;;;;5.22;3.70;;;;;;;;;;5054834;28;20285;-56
2022/08/21 01:52:21;;;;;;;8.27;3.33;;;;;;;;;;5055348;28;20208;-55
2022/08/21 01:54:48;;;;;;;5.68;3.60;;;;;;;;;;5055115;28;20199;-57
2022/08/21 01:57:22;;;;;;;6.22;3.90;;;;;;;;;;5055002;28;20299;-57
2022/08/21 01:59:52;;;;;;;4.78;4.10;;;;;;;;;;5054466;28;20232;-57
2022/08/21 02:02:19;;;;;;;6.82;3.92;;;;;;;;;;5054951;28;20200;-56
2022/08/21 02:04:46;;;;;;;7.07;3.90;;;;;;;;;;5055096;28;20204;-57
2022/08/21 02:07:14;;;;;;;6.65;4.07;;;;;;;;;;5054956;28;20214;-55
2022/08/21 02:09:44;;;;;;;6.60;3.85;;;;;;;;;;5054530;28;20204;-57
2022/08/21 02:12:12;;;;;;;5.15;3.80;;;;;;;;;;5054651;28;20196;-57
2022/08/21 02:14:39;;;;;;;8.48;3.75;;;;;;;;;;5054839;28;20643;-56
2022/08/21 02:17:06;;;;;;;4.70;4.20;;;;;;;;;;5054560;28;20634;-55
2022/08/21 02:19:37;;;;;;;5.40;3.75;;;;;;;;;;5054418;28;20671;-55
2022/08/21 02:22:10;;;;;;;8.40;3.83;;;;;;;;;;5054648;28;20211;-55
2022/08/21 02:24:38;;;;;;;7.00;3.90;;;;;;;;;;5054544;28;20184;-56
2022/08/21 02:27:24;;;;;;;6.68;3.67;;;;;;;;;;5056680;28;20279;-55
2022/08/21 02:29:56;;;;;;;7.15;4.20;;;;;;;;;;5059118;28;20292;-56
2022/08/21 02:32:23;;;;;;;7.57;4.20;;;;;;;;;;5058429;28;20204;-56
2022/08/21 02:34:50;;;;;;;4.20;3.58;;;;;;;;;;5058622;28;20210;-56
2022/08/21 02:37:17;;;;;;;5.28;3.78;;;;;;;;;;5058685;28;20526;-56
2022/08/21 02:39:44;;;;;;;4.90;4.22;;;;;;;;;;5058497;28;20215;-55
2022/08/21 02:42:12;;;;;;;4.90;3.63;;;;;;;;;;5058370;28;20739;-57
2022/08/21 02:44:39;;;;;;;5.90;4.10;;;;;;;;;;5058361;28;20637;-56
2022/08/21 02:47:06;;;;;;;9.10;4.50;;;;;;;;;;5058452;28;20580;-57
2022/08/21 02:49:33;;;;;;;5.18;4.10;;;;;;;;;;5057929;28;20231;-57
2022/08/21 02:52:00;;;;;;;6.53;4.30;;;;;;;;;;5058414;28;20200;-57
2022/08/21 02:54:27;;;;;;;8.70;4.85;;;;;;;;;;5057831;28;20204;-55
2022/08/21 02:56:54;;;;;;;7.13;4.40;;;;;;;;;;5057777;28;20652;-54
2022/08/21 02:59:21;;;;;;;5.50;3.80;;;;;;;;;;5057861;28;20219;-57
2022/08/21 03:01:48;;;;;;;5.32;4.47;;;;;;;;;;5073291;28;20453;-54
2022/08/21 03:04:15;;;;;;;5.75;3.88;;;;;;;;;;5058011;28;20286;-56
2022/08/21 03:06:42;;;;;;;9.13;3.90;;;;;;;;;;5056203;28;20278;-55
2022/08/21 03:09:09;;;;;;;8.07;3.80;;;;;;;;;;5056993;28;20208;-56
2022/08/21 03:11:36;;;;;;;5.85;4.07;;;;;;;;;;5057502;28;20629;-54
2022/08/21 03:14:04;;;;;;;7.25;4.30;;;;;;;;;;5057526;28;20203;-56
2022/08/21 03:16:31;;;;;;;6.40;4.05;;;;;;;;;;5057394;28;20200;-57
2022/08/21 03:19:02;;;;;;;5.20;4.18;;;;;;;;;;5057340;28;20687;-56
2022/08/21 03:21:30;;;;;;;6.57;4.00;;;;;;;;;;5057412;28;20232;-56
2022/08/21 03:23:57;;;;;;;8.93;3.92;;;;;;;;;;5057252;28;20620;-56
2022/08/21 03:26:24;;;;;;;6.60;4.50;;;;;;;;;;5057304;28;20214;-55
2022/08/21 03:28:54;;;;;;;6.32;3.92;;;;;;;;;;5057363;28;20552;-56
2022/08/21 03:31:21;;;;;;;5.68;4.00;;;;;;;;;;5057102;28;20200;-56
2022/08/21 03:33:48;;;;;;;7.15;4.45;;;;;;;;;;5057301;28;20303;-56
2022/08/21 03:36:15;;;;;;;7.78;4.50;;;;;;;;;;5057334;28;20208;-55
2022/08/21 03:38:42;;;;;;;8.15;4.95;;;;;;;;;;5056643;28;20205;-57
2022/08/21 03:41:09;;;;;;;8.38;5.40;;;;;;;;;;5056969;28;20286;-56
2022/08/21 03:43:38;;;;;;;12.18;6.40;;;;;;;;;;5056885;28;20208;-56
2022/08/21 03:46:06;;;;;;;9.75;6.20;;;;;;;;;;5057139;28;20265;-57
2022/08/21 03:48:35;;;;;;;7.90;5.78;;;;;;;;;;5056846;28;20197;-56
2022/08/21 03:51:03;;;;;;;9.13;6.05;;;;;;;;;;5056963;28;20266;-56
2022/08/21 03:53:30;;;;;;;7.88;5.80;;;;;;;;;;5056901;28;20211;-57
2022/08/21 03:55:58;;;;;;;12.98;6.22;;;;;;;;;;5056885;28;20567;-56
2022/08/21 03:58:27;;;;;;;10.93;6.65;;;;;;;;;;5056853;28;20208;-57
2022/08/21 04:00:56;;;;;;;8.73;6.65;;;;;;;;;;5057056;28;20228;-56
2022/08/21 04:03:24;;;;;;;7.63;6.82;;;;;;;;;;5057060;28;20291;-55
2022/08/21 04:05:51;;;;;;;8.13;6.75;;;;;;;;;;5056240;28;20207;-56
2022/08/21 04:08:18;;;;;;;9.18;6.63;;;;;;;;;;5057011;28;20437;-55
2022/08/21 04:10:49;;;;;;;14.30;7.47;;;;;;;;;;5045769;28;20215;-57
2022/08/21 04:13:16;;;;;;;6.78;5.93;;;;;;;;;;5072487;28;20203;-56
2022/08/21 04:15:43;;;;;;;10.60;6.57;;;;;;;;;;5056409;28;20206;-57
2022/08/21 04:18:10;;;;;;;8.85;6.93;;;;;;;;;;5056439;28;20591;-56
2022/08/21 04:20:38;;;;;;;11.80;7.00;;;;;;;;;;5056388;28;20224;-55
2022/08/21 04:23:06;;;;;;;9.25;6.10;;;;;;;;;;5071956;28;20341;-56
2022/08/21 04:25:33;;;;;;;9.85;7.07;;;;;;;;;;5056577;28;20204;-57
2022/08/21 04:28:01;;;;;;;9.32;7.25;;;;;;;;;;5056204;28;20628;-57
2022/08/21 04:30:29;;;;;;;8.65;6.70;;;;;;;;;;5054380;28;20265;-57
2022/08/21 04:32:57;;;;;;;7.40;6.47;;;;;;;;;;5049563;28;20197;-56
2022/08/21 04:35:27;;;;;;;9.50;6.47;;;;;;;;;;5045184;28;20626;-58
2022/08/21 04:37:54;;;;;;;10.75;7.60;;;;;;;;;;5046039;28;20212;-57
2022/08/21 04:40:24;;;;;;;9.65;7.30;;;;;;;;;;5049947;28;20217;-57
2022/08/21 04:42:54;;;;;;;10.25;7.25;;;;;;;;;;5046279;28;20188;-55
2022/08/21 04:45:27;;;;;;;8.32;6.53;;;;;;;;;;5044821;28;20664;-58
2022/08/21 04:47:58;;;;;;;10.75;6.95;;;;;;;;;;5048157;28;20201;-57
2022/08/21 04:50:47;;;;;;;8.40;7.10;;;;;;;;;;5044568;28;20263;-57
2022/08/21 04:53:22;;;;;;;9.63;7.63;;;;;;;;;;5042849;28;20192;-57
2022/08/21 04:55:52;;;;;;;9.23;6.85;;;;;;;;;;5043385;28;20185;-56
2022/08/21 04:58:21;;;;;;;10.63;7.15;;;;;;;;;;5044496;28;20192;-57
2022/08/21 05:00:48;;;;;;;8.43;6.60;;;;;;;;;;5050284;28;20397;-56
2022/08/21 05:03:16;;;;;;;9.82;6.82;;;;;;;;;;5052895;28;20211;-57
2022/08/21 05:05:43;;;;;;;7.70;6.90;;;;;;;;;;5044736;28;20200;-57
2022/08/21 05:08:14;;;;;;;7.75;6.68;;;;;;;;;;5044378;28;20207;-57
2022/08/21 05:10:42;;;;;;;7.95;7.07;;;;;;;;;;5043982;28;20200;-59
2022/08/21 05:13:12;;;;;;;7.72;6.47;;;;;;;;;;5043045;28;20200;-58
2022/08/21 05:15:40;;;;;;;10.13;6.45;;;;;;;;;;5044072;28;20192;-57
2022/08/21 05:18:07;;;;;;;8.07;6.60;;;;;;;;;;5048157;28;20195;-58
2022/08/21 05:20:34;;;;;;;9.98;6.90;;;;;;;;;;5045715;28;20239;-57
2022/08/21 05:23:07;;;;;;;8.40;7.20;;;;;;;;;;5043166;28;20232;-58
2022/08/21 05:25:35;;;;;;;8.82;6.78;;;;;;;;;;5043573;28;20219;-58
2022/08/21 05:28:02;;;;;;;7.53;6.35;;;;;;;;;;5045161;28;20184;-57
2022/08/21 05:30:29;;;;;;;7.55;6.75;;;;;;;;;;5049390;28;20207;-58
2022/08/21 05:32:58;;;;;;;8.90;6.70;;;;;;;;;;5043460;28;20200;-56
2022/08/21 05:35:27;;;;;;;10.10;6.72;;;;;;;;;;5043194;28;20509;-58
2022/08/21 05:37:55;;;;;;;8.95;7.18;;;;;;;;;;5043452;28;20196;-57
2022/08/21 05:40:23;;;;;;;9.52;6.38;;;;;;;;;;5042485;28;20211;-58
2022/08/21 05:42:52;;;;;;;7.38;6.68;;;;;;;;;;5034826;28;20534;-57
2022/08/21 05:45:26;;;;;;;9.75;7.05;;;;;;;;;;5034944;28;20618;-58
2022/08/21 05:48:12;;;;;;;8.00;7.07;;;;;;;;;;5035018;28;20208;-58
2022/08/21 05:50:40;;;;;;;10.15;6.82;;;;;;;;;;5034929;28;20321;-58
2022/08/21 05:53:09;;;;;;;8.82;7.30;;;;;;;;;;5048583;28;20196;-57
2022/08/21 05:55:37;;;;;;;9.68;7.53;;;;;;;;;;5054439;28;20231;-57
2022/08/21 05:58:13;;;;;;;9.48;7.50;;;;;;;;;;5053913;28;20310;-58
2022/08/21 06:00:40;;;;;;;8.23;6.97;;;;;;;;;;5054126;28;20293;-57
2022/08/21 06:03:17;;;;;;;7.38;6.60;;;;;;;;;;5063831;28;20229;-57
2022/08/21 06:05:45;;;;;;;10.85;8.13;;;;;;;;;;5074044;28;20647;-58
2022/08/21 06:08:13;;;;;;;10.40;7.88;;;;;;;;;;5065882;28;20244;-57
2022/08/21 06:10:40;;;;;;;9.20;7.60;;;;;;;;;;5052054;28;20323;-58
2022/08/21 06:13:07;;;;;;;11.55;8.23;;;;;;;;;;5052332;28;20231;-58
2022/08/21 06:15:35;;;;;;;10.48;7.70;;;;;;;;;;5036397;28;20229;-58
2022/08/21 06:18:02;;;;;;;10.70;8.20;;;;;;;;;;5034043;28;20229;-58
2022/08/21 06:20:29;;;;;;;9.38;8.10;;;;;;;;;;5039245;28;20224;-58
2022/08/21 06:22:56;;;;;;;13.02;7.72;;;;;;;;;;5036220;28;20548;-58
2022/08/21 06:25:24;;;;;;;8.35;6.97;;;;;;;;;;5052680;28;20230;-58
2022/08/21 06:27:51;;;;;;;9.73;7.40;;;;;;;;;;5053986;28;20223;-58
2022/08/21 06:30:18;;;;;;;8.13;7.32;;;;;;;;;;5042659;28;20598;-58
2022/08/21 06:32:45;;;;;;;10.23;7.88;;;;;;;;;;5034474;28;20252;-57
2022/08/21 06:35:12;;;;;;;8.55;7.65;;;;;;;;;;5033690;28;20603;-57
2022/08/21 06:37:39;;;;;;;11.65;8.27;;;;;;;;;;5033479;28;20666;-56
2022/08/21 06:40:07;;;;;;;10.27;8.15;;;;;;;;;;5070591;28;20223;-57
2022/08/21 06:42:39;;;;;;;8.90;7.53;;;;;;;;;;5073822;28;20235;-55
2022/08/21 06:45:09;;;;;;;8.57;7.68;;;;;;;;;;5073319;28;20680;-58
2022/08/21 06:47:36;;;;;;;8.00;7.20;;;;;;;;;;5074012;28;20235;-58
2022/08/21 06:50:04;;;;;;;8.73;6.80;;;;;;;;;;5073218;28;20567;-58
2022/08/21 06:52:31;;;;;;;9.18;7.22;;;;;;;;;;5073458;28;20230;-58
2022/08/21 06:54:58;;;;;;;8.20;7.25;;;;;;;;;;5073212;28;20235;-57
2022/08/21 06:57:26;;;;;;;8.35;7.47;;;;;;;;;;5073541;28;20223;-56
2022/08/21 06:59:53;;;;;;;8.43;7.40;;;;;;;;;;5052363;28;20224;-57
2022/08/21 07:02:19;;;;;;;8.50;7.18;;;;;;;;;;5050238;28;20242;-59
2022/08/21 07:04:47;;;;;;;7.80;6.75;;;;;;;;;;5041769;28;20563;-58
2022/08/21 07:07:14;;;;;;;10.30;6.80;;;;;;;;;;5045481;28;20244;-59
2022/08/21 07:09:41;;;;;;;7.43;6.63;;;;;;;;;;5050787;28;20251;-58
2022/08/21 07:12:09;;;;;;;7.70;6.82;;;;;;;;;;5033261;28;20263;-59
2022/08/21 07:14:36;;;;;;;9.63;6.65;;;;;;;;;;5034528;28;20228;-57
2022/08/21 07:17:04;;;;;;;8.20;7.28;;;;;;;;;;5036848;28;20243;-58
2022/08/21 07:19:31;;;;;;;9.13;7.45;;;;;;;;;;5037283;28;20727;-58
2022/08/21 07:22:00;;;;;;;10.15;6.80;;;;;;;;;;5036405;28;20260;-58
2022/08/21 07:24:28;;;;;;;8.63;6.80;;;;;;;;;;5036189;28;20236;-58
2022/08/21 07:26:55;;;;;;;11.65;7.95;;;;;;;;;;5036729;28;20295;-58
2022/08/21 07:29:22;;;;;;;11.45;7.03;;;;;;;;;;5034325;28;20649;-60
2022/08/21 07:31:50;;;;;;;8.75;7.03;;;;;;;;;;5036113;28;20236;-59
2022/08/21 07:34:17;;;;;;;8.85;6.70;;;;;;;;;;5036569;28;20598;-58
2022/08/21 07:36:44;;;;;;;10.38;7.00;;;;;;;;;;5053015;28;20234;-57
2022/08/21 07:39:12;;;;;;;8.80;7.25;;;;;;;;;;5055115;28;20319;-59
2022/08/21 07:41:39;;;;;;;9.07;6.88;;;;;;;;;;5055986;28;20246;-59
2022/08/21 07:44:06;;;;;;;7.95;6.68;;;;;;;;;;5055176;28;20553;-59
2022/08/21 07:46:33;;;;;;;10.52;6.72;;;;;;;;;;5054220;28;20224;-59
2022/08/21 07:49:00;;;;;;;8.05;7.18;;;;;;;;;;5056408;28;20227;-59
2022/08/21 07:51:28;;;;;;;11.23;7.57;;;;;;;;;;5054883;28;20243;-57
2022/08/21 07:53:56;;;;;;;10.43;7.72;;;;;;;;;;5056418;28;20234;-59
2022/08/21 07:56:23;;;;;;;10.20;7.90;;;;;;;;;;5055310;28;20238;-59
2022/08/21 07:58:51;;;;;;;10.68;7.95;;;;;;;;;;5055014;28;20228;-57
2022/08/21 08:01:19;;;;;;;8.52;7.03;;;;;;;;;;5051754;28;20243;-58
2022/08/21 08:03:46;;;;;;;12.95;7.22;;;;;;;;;;5056451;28;20282;-59
2022/08/21 08:06:13;;;;;;;11.30;8.10;;;;;;;;;;5050154;28;20221;-57
2022/08/21 08:08:42;;;;;;;8.00;6.72;;;;;;;;;;5051349;28;20216;-58
2022/08/21 08:11:10;;;;;;;10.50;7.85;;;;;;;;;;5055970;28;20223;-58
2022/08/21 08:13:39;;;;;;;10.68;8.15;;;;;;;;;;5054651;28;20319;-58
2022/08/21 08:16:07;;;;;;;10.55;7.93;;;;;;;;;;5055389;28;20231;-58
2022/08/21 08:18:34;;;;;;;10.45;7.72;;;;;;;;;;5054748;28;20239;-58
2022/08/21 08:21:01;;;;;;;9.90;7.93;;;;;;;;;;5053765;28;20239;-58
2022/08/21 08:23:30;;;;;;;8.82;7.60;;;;;;;;;;5053627;28;20224;-59
2022/08/21 08:25:58;;;;;;;10.55;7.88;;;;;;;;;;5054550;28;20231;-58
2022/08/21 08:28:26;;;;;;;8.88;7.40;;;;;;;;;;5055540;28;20234;-58
2022/08/21 08:30:55;;;;;;;9.95;7.65;;;;;;;;;;5055142;28;20579;-58
2022/08/21 08:33:22;;;;;;;9.88;7.30;;;;;;;;;;5055325;28;20224;-58
2022/08/21 08:35:50;;;;;;;12.00;7.25;;;;;;;;;;5055535;28;20231;-57
2022/08/21 08:38:19;;;;;;;8.38;7.45;;;;;;;;;;5054569;28;20531;-58
2022/08/21 08:40:59;;;;;;;11.75;7.40;;;;;;;;;;5049353;28;20236;-58
2022/08/21 08:43:28;;;;;;;8.15;6.85;;;;;;;;;;5034409;28;20323;-58
2022/08/21 08:45:58;;;;;;;10.15;6.93;;;;;;;;;;5054758;28;20311;-58
2022/08/21 08:48:50;;;;;;;8.30;6.32;;;;;;;;;;5054255;28;20239;-57
2022/08/21 08:51:46;;;;;;;8.70;7.38;;;;;;;;;;5053730;28;20672;-58
2022/08/21 08:54:40;;;;;;;9.13;7.05;;;;;;;;;;5032050;28;20216;-58
2022/08/21 08:57:14;;;;;;;8.82;6.63;;;;;;;;;;5034369;28;20658;-58
2022/08/21 08:59:46;;;;;;;8.25;6.50;;;;;;;;;;5035063;28;20584;-58
2022/08/21 09:02:15;;;;;;;8.85;6.65;;;;;;;;;;5034006;28;20248;-59
2022/08/21 09:04:44;;;;;;;10.15;6.80;;;;;;;;;;5034958;28;20672;-58
2022/08/21 09:07:38;;;;;;;11.68;6.10;;;;;;;;;;5034514;28;20262;-59
2022/08/21 09:10:11;;;;;;;8.07;6.43;;;;;;;;;;5071585;28;20232;-58
2022/08/21 09:13:17;;;;;;;9.32;6.60;;;;;;;;;;5074936;28;20230;-59
2022/08/21 09:15:55;;;;;;;11.20;6.72;;;;;;;;;;5066969;28;20223;-59
2022/08/21 09:18:43;;;;;;;10.60;6.50;;;;;;;;;;5074609;28;20230;-57
2022/08/21 09:21:18;;;;;;;9.38;6.72;;;;;;;;;;5073312;28;20219;-58
2022/08/21 09:24:16;;;;;;;10.77;6.55;;;;;;;;;;5057438;28;20276;-59
2022/08/21 09:27:05;;;;;;;6.72;6.10;;;;;;;;;;5074892;28;20246;-58
2022/08/21 09:29:35;;;;;;;7.03;5.95;;;;;;;;;;5074574;28;20234;-58
2022/08/21 09:32:11;;;;;;;10.13;6.30;;;;;;;;;;5074336;28;20237;-58
2022/08/21 09:35:14;;;;;;;8.00;6.32;;;;;;;;;;5073228;28;20222;-56
2022/08/21 09:37:51;;;;;;;8.80;6.97;;;;;;;;;;5073006;28;20284;-55
2022/08/21 09:40:36;;;;;;;6.90;5.93;;;;;;;;;;5033753;28;20228;-56
2022/08/21 09:43:22;;;;;;;8.23;6.28;;;;;;;;;;5032617;28;20550;-55
2022/08/21 09:46:09;;;;;;;8.68;6.30;;;;;;;;;;5050227;28;20690;-55
2022/08/21 09:48:45;;;;;;;5.90;5.30;;;;;;;;;;5033528;28;20221;-56
2022/08/21 09:51:22;;;;;;;11.13;6.68;;;;;;;;;;5044965;28;20250;-57
2022/08/21 09:53:54;;;;;;;7.68;5.75;;;;;;;;;;5051203;28;20242;-55
2022/08/21 09:59:34;;;;;;;8.98;5.78;;;;;;;;;;5053330;28;20617;-56
2022/08/21 10:02:24;;;;;;;7.07;5.85;;;;;;;;;;5051571;28;20231;-58
2022/08/21 10:04:57;;;;;;;7.80;5.53;;;;;;;;;;5046993;28;20224;-56
2022/08/21 10:07:26;;;;;;;17.35;6.30;;;;;;;;;;5035901;28;20625;-58
2022/08/21 10:10:01;;;;;;;7.63;6.32;;;;;;;;;;5052523;28;20224;-58
2022/08/21 10:13:00;;;;;;;6.95;5.70;;;;;;;;;;5052838;28;20254;-55
2022/08/21 10:15:38;;;;;;;6.90;5.68;;;;;;;;;;5033954;28;20631;-57
2022/08/21 10:18:29;;;;;;;7.93;6.03;;;;;;;;;;5033862;28;20220;-56
2022/08/21 10:21:04;;;;;;;9.05;5.57;;;;;;;;;;5030060;28;20669;-58
2022/08/21 10:23:37;;;;;;;7.70;5.40;;;;;;;;;;5033677;28;20243;-56
2022/08/21 10:26:26;;;;;;;7.80;5.68;;;;;;;;;;5033394;28;20224;-57
2022/08/21 10:29:07;;;;;;;6.95;5.43;;;;;;;;;;5049713;28;20290;-58
2022/08/21 10:32:05;;;;;;;8.40;5.57;;;;;;;;;;5034063;28;20228;-56
2022/08/21 10:35:14;;;;;;;7.53;5.28;;;;;;;;;;5033414;28;20229;-54
2022/08/21 10:38:16;;;;;;;7.07;5.28;;;;;;;;;;5032743;28;20232;-57
2022/08/21 10:41:22;;;;;;;7.22;5.60;;;;;;;;;;5043582;28;20220;-56
2022/08/21 10:44:04;;;;;;;6.85;5.70;;;;;;;;;;5052548;28;20232;-58
2022/08/21 10:46:51;;;;;;;6.75;5.80;;;;;;;;;;5053698;28;20228;-56
2022/08/21 10:49:39;;;;;;;13.48;5.53;;;;;;;;;;5055179;28;20246;-58
2022/08/21 10:52:22;;;;;;;11.60;5.03;;;;;;;;;;5055557;28;20228;-59
2022/08/21 10:54:54;;;;;;;7.80;4.97;;;;;;;;;;5057006;28;20680;-58
2022/08/21 10:57:29;;;;;;;6.22;5.50;;;;;;;;;;5056046;28;20315;-58
2022/08/21 11:00:13;;;;;;;7.55;5.07;;;;;;;;;;5040577;28;20481;-58
2022/08/21 11:03:05;;;;;;;7.68;5.20;;;;;;;;;;5043768;28;20246;-58
2022/08/21 11:05:49;;;;;;;5.78;4.57;;;;;;;;;;5041500;28;20711;-58
2022/08/21 11:08:33;;;;;;;7.20;4.43;;;;;;;;;;5054883;28;20227;-58
2022/08/21 11:11:05;;;;;;;6.25;3.95;;;;;;;;;;5053036;28;20243;-59
2022/08/21 11:13:51;;;;;;;6.68;4.00;;;;;;;;;;5055522;28;20243;-56
2022/08/21 11:16:24;;;;;;;6.30;4.82;;;;;;;;;;5057280;28;20230;-58
2022/08/21 11:19:20;;;;;;;5.60;4.18;;;;;;;;;;5051289;28;20235;-58
2022/08/21 11:22:11;;;;;;;6.38;4.85;;;;;;;;;;5033701;28;20240;-58
2022/08/21 11:24:49;;;;;;;6.90;4.55;;;;;;;;;;5045453;28;20298;-59
2022/08/21 11:27:26;;;;;;;8.20;4.85;;;;;;;;;;5065705;28;20220;-58
2022/08/21 11:29:55;;;;;;;8.38;4.57;;;;;;;;;;5043358;28;20227;-59
2022/08/21 11:32:40;;;;;;;7.45;4.45;;;;;;;;;;5054105;28;20556;-58
2022/08/21 11:35:32;;;;;;;6.22;3.40;;;;;;;;;;5054770;28;20714;-56
2022/08/21 11:38:17;;;;;;;4.05;3.25;;;;;;;;;;5050499;28;20212;-57
2022/08/21 11:41:08;;;;;;;8.20;4.15;;;;;;;;;;5039231;28;20306;-56
2022/08/21 11:43:44;;;;;;;7.25;3.78;;;;;;;;;;5050418;28;20302;-56
2022/08/21 11:46:16;;;;;;;5.75;3.53;;;;;;;;;;5053295;28;20694;-55
2022/08/21 11:49:06;;;;;;;5.68;4.68;;;;;;;;;;5053850;28;20220;-56
2022/08/21 11:51:53;;;;;;;4.10;3.70;;;;;;;;;;5066050;28;20248;-59
2022/08/21 11:54:23;;;;;;;7.18;3.63;;;;;;;;;;5070931;28;20238;-58
2022/08/21 11:57:22;;;;;;;9.35;4.30;;;;;;;;;;5053311;28;20684;-59
2022/08/21 11:59:56;;;;;;;5.30;3.80;;;;;;;;;;5034472;28;20232;-59
2022/08/21 12:02:28;;;;;;;8.65;4.05;;;;;;;;;;5054855;28;20239;-59
2022/08/21 12:05:04;;;;;;;5.63;3.80;;;;;;;;;;5054795;28;20319;-58
2022/08/21 12:07:40;;;;;;;7.57;3.92;;;;;;;;;;5054662;28;20235;-58
2022/08/21 12:10:15;;;;;;;4.45;3.88;;;;;;;;;;5055005;28;20239;-58
2022/08/21 12:12:44;;;;;;;3.55;3.25;;;;;;;;;;5055002;28;20227;-59
2022/08/21 12:15:20;;;;;;;4.45;3.60;;;;;;;;;;5053067;28;20234;-59
2022/08/21 12:17:56;;;;;;;5.70;4.25;;;;;;;;;;5053956;28;20293;-58
2022/08/21 12:20:29;;;;;;;5.30;3.40;;;;;;;;;;5054693;28;20293;-59
2022/08/21 12:23:18;;;;;;;5.35;4.00;;;;;;;;;;5054768;28;20632;-57
2022/08/21 12:26:28;;;;;;;5.07;4.10;;;;;;;;;;5054696;28;20663;-59
2022/08/21 12:29:13;;;;;;;4.63;3.67;;;;;;;;;;5045123;28;20676;-59
2022/08/21 12:32:09;;;;;;;5.38;3.30;;;;;;;;;;5054943;28;20290;-58
2022/08/21 12:34:38;;;;;;;4.45;3.55;;;;;;;;;;5034731;28;20228;-59
2022/08/21 12:37:14;;;;;;;5.15;3.58;;;;;;;;;;5054021;28;20235;-59
2022/08/21 12:39:44;;;;;;;6.75;3.45;;;;;;;;;;5068516;28;20251;-59
2022/08/21 12:42:22;;;;;;;5.75;3.78;;;;;;;;;;5072803;28;20231;-59
2022/08/21 12:44:59;;;;;;;5.50;3.40;;;;;;;;;;5074026;28;20230;-59
2022/08/21 12:47:49;;;;;;;6.03;3.67;;;;;;;;;;5068735;28;20256;-58
2022/08/21 12:50:21;;;;;;;4.70;3.78;;;;;;;;;;5055690;28;20228;-58
2022/08/21 12:52:57;;;;;;;4.63;3.92;;;;;;;;;;5033627;28;20715;-59
2022/08/21 12:55:30;;;;;;;4.55;3.80;;;;;;;;;;5033732;28;20278;-59
2022/08/21 12:57:58;;;;;;;4.75;4.25;;;;;;;;;;5036559;28;20232;-58
2022/08/21 13:00:27;;;;;;;4.57;3.60;;;;;;;;;;5034553;28;20699;-58
2022/08/21 13:02:56;;;;;;;7.93;3.90;;;;;;;;;;5035107;28;20243;-59
2022/08/21 13:05:35;;;;;;;4.82;3.90;;;;;;;;;;5033322;28;20220;-58
2022/08/21 13:08:05;;;;;;;5.80;4.15;;;;;;;;;;5038353;28;20282;-58
2022/08/21 13:10:34;;;;;;;6.50;4.05;;;;;;;;;;5073292;28;20231;-56
2022/08/21 13:13:07;;;;;;;3.50;3.15;;;;;;;;;;5072324;28;20242;-59
2022/08/21 13:15:40;;;;;;;4.18;3.65;;;;;;;;;;5074356;28;20226;-58
2022/08/21 13:18:24;;;;;;;4.25;3.75;;;;;;;;;;5073387;28;20611;-58
2022/08/21 13:20:52;;;;;;;9.68;3.88;;;;;;;;;;5074500;28;20231;-58
2022/08/21 13:23:26;;;;;;;9.73;3.78;;;;;;;;;;5073526;28;20604;-59
2022/08/21 13:25:55;;;;;;;5.53;3.83;;;;;;;;;;5074562;28;20284;-59
2022/08/21 13:28:22;;;;;;;4.65;3.67;;;;;;;;;;5074468;28;20233;-58
2022/08/21 13:30:54;;;;;;;3.95;3.47;;;;;;;;;;5074745;28;20566;-58
2022/08/21 13:33:26;;;;;;;5.88;3.72;;;;;;;;;;5074304;28;20227;-58
2022/08/21 13:36:22;;;;;;;7.65;3.92;;;;;;;;;;5073516;28;20238;-59
2022/08/21 13:38:53;;;;;;;5.68;3.80;;;;;;;;;;5066475;28;20257;-58
2022/08/21 13:41:25;;;;;;;4.15;3.53;;;;;;;;;;5054398;28;20250;-58
2022/08/21 13:44:02;;;;;;;4.57;3.78;;;;;;;;;;5053965;28;20322;-58
2022/08/21 13:46:33;;;;;;;4.43;3.83;;;;;;;;;;5053866;28;20286;-58
2022/08/21 13:49:02;;;;;;;3.80;3.20;;;;;;;;;;5053155;28;20219;-59
2022/08/21 13:51:31;;;;;;;3.95;3.42;;;;;;;;;;5053934;28;20256;-59
2022/08/21 13:53:58;;;;;;;5.40;3.65;;;;;;;;;;5042964;28;20246;-59
2022/08/21 13:56:42;;;;;;;4.82;3.67;;;;;;;;;;5032283;28;20240;-60
2022/08/21 13:59:11;;;;;;;9.43;4.20;;;;;;;;;;5033129;28;20224;-59
2022/08/21 14:01:48;;;;;;;6.03;3.42;;;;;;;;;;5049095;28;20231;-59
2022/08/21 14:04:47;;;;;;;4.78;3.72;;;;;;;;;;5053328;28;20240;-59
2022/08/21 14:07:40;;;;;;;4.90;3.55;;;;;;;;;;5053447;28;20368;-59
2022/08/21 14:10:14;;;;;;;4.35;3.53;;;;;;;;;;5071410;28;20223;-60
2022/08/21 14:12:43;;;;;;;4.78;3.72;;;;;;;;;;5073177;28;20236;-59
2022/08/21 14:15:13;;;;;;;4.88;3.35;;;;;;;;;;5059653;28;20231;-59
2022/08/21 14:17:41;;;;;;;4.32;3.50;;;;;;;;;;5052335;28;20227;-59
2022/08/21 14:20:26;;;;;;;4.88;3.70;;;;;;;;;;5052322;28;20235;-59
2022/08/21 14:22:53;;;;;;;6.85;3.95;;;;;;;;;;5054485;28;20224;-59
2022/08/21 14:25:24;;;;;;;5.88;3.70;;;;;;;;;;5058256;28;20246;-59
2022/08/21 14:27:53;;;;;;;4.80;3.67;;;;;;;;;;5057365;28;20230;-59
2022/08/21 14:30:27;;;;;;;6.05;3.70;;;;;;;;;;5056628;28;20223;-59
2022/08/21 14:32:55;;;;;;;4.68;3.45;;;;;;;;;;5057158;28;20234;-59
2022/08/21 14:35:22;;;;;;;10.57;3.60;;;;;;;;;;5057900;28;20227;-59
2022/08/21 14:37:51;;;;;;;7.85;3.95;;;;;;;;;;5057685;28;20220;-59
2022/08/21 14:40:19;;;;;;;5.70;3.50;;;;;;;;;;5057267;28;20216;-59
2022/08/21 14:42:47;;;;;;;10.00;3.97;;;;;;;;;;5057435;28;20592;-59
2022/08/21 14:45:17;;;;;;;5.28;3.67;;;;;;;;;;5057563;28;20235;-59
2022/08/21 14:47:50;;;;;;;5.88;3.78;;;;;;;;;;5057476;28;20228;-59
2022/08/21 14:50:17;;;;;;;4.75;3.97;;;;;;;;;;5057472;28;20671;-60
2022/08/21 14:52:45;;;;;;;3.63;3.28;;;;;;;;;;5057773;28;20228;-59
2022/08/21 14:55:14;;;;;;;4.65;3.92;;;;;;;;;;5056408;28;20622;-59
2022/08/21 14:57:43;;;;;;;8.57;3.83;;;;;;;;;;5057183;28;20223;-59
2022/08/21 15:00:12;;;;;;;7.25;3.95;;;;;;;;;;5057098;28;20244;-59
2022/08/21 15:02:40;;;;;;;3.97;3.47;;;;;;;;;;5056524;28;20300;-60
2022/08/21 15:05:07;;;;;;;5.82;4.20;;;;;;;;;;5055809;28;20346;-59
2022/08/21 15:07:34;;;;;;;4.28;3.85;;;;;;;;;;5055257;28;20215;-59
2022/08/21 15:10:01;;;;;;;6.28;4.35;;;;;;;;;;5057239;28;20232;-59
2022/08/21 15:12:28;;;;;;;10.50;3.72;;;;;;;;;;5053511;28;20577;-58
2022/08/21 15:14:55;;;;;;;7.97;3.83;;;;;;;;;;5055005;28;20315;-58